createdAt,value
2023-05-12T00:01:17.686Z,60.78
2023-05-12T00:03:44.794Z,61.41
2023-05-12T00:06:12.529Z,61.49
2023-05-12T00:08:39.491Z,61.27
2023-05-12T00:11:06.339Z,61.54
2023-05-12T00:13:33.400Z,61.85
2023-05-12T00:16:00.681Z,62.27
2023-05-12T00:18:28.756Z,62.66
2023-05-12T00:20:55.918Z,62.87
2023-05-12T00:23:23.023Z,63.08
2023-05-12T00:25:50.183Z,63.18
2023-05-12T00:28:18.328Z,63.66
2023-05-12T00:30:45.293Z,63.67
2023-05-12T00:33:12.252Z,63.09
2023-05-12T00:35:39.223Z,62.98
2023-05-12T00:38:06.151Z,63.07
2023-05-12T00:40:33.023Z,62.93
2023-05-12T00:43:00.323Z,63.20
2023-05-12T00:45:29.700Z,63.54
2023-05-12T00:47:57.006Z,63.86
2023-05-12T00:50:24.231Z,63.02
2023-05-12T00:52:51.166Z,62.80
2023-05-12T00:55:18.086Z,63.87
2023-05-12T00:57:45.739Z,63.43
2023-05-12T01:00:14.194Z,63.56
2023-05-12T01:02:42.894Z,64.09
2023-05-12T01:05:10.363Z,63.74
2023-05-12T01:07:37.964Z,63.00
2023-05-12T01:10:05.957Z,63.30
2023-05-12T01:12:35.054Z,63.10
2023-05-12T01:15:02.615Z,63.25
2023-05-12T01:17:33.383Z,62.22
2023-05-12T01:20:01.888Z,61.98
2023-05-12T01:22:31.334Z,61.68
2023-05-12T01:25:00.033Z,62.12
2023-05-12T01:27:29.049Z,62.63
2023-05-12T01:29:59.013Z,62.62
2023-05-12T01:32:26.885Z,63.22
2023-05-12T01:34:53.839Z,63.62
2023-05-12T01:37:21.345Z,63.62
2023-05-12T01:39:48.517Z,63.08
2023-05-12T01:42:19.226Z,63.75
2023-05-12T01:44:46.618Z,63.64
2023-05-12T01:47:15.932Z,63.63
2023-05-12T01:49:48.013Z,63.19
2023-05-12T01:52:16.263Z,63.13
2023-05-12T01:54:43.255Z,62.96
2023-05-12T01:57:11.041Z,63.14
2023-05-12T01:59:38.746Z,63.26
2023-05-12T02:02:06.834Z,63.22
2023-05-12T02:04:34.707Z,63.24
2023-05-12T02:07:02.181Z,-1.00
2023-05-12T02:09:29.569Z,-1.00
2023-05-12T02:12:00.853Z,-1.00
2023-05-12T02:14:28.216Z,-1.00
2023-05-12T02:16:56.500Z,-1.00
2023-05-12T02:19:24.387Z,-1.00
2023-05-12T02:21:51.473Z,-1.00
2023-05-12T02:24:18.531Z,-1.00
2023-05-12T02:26:45.660Z,-1.00
2023-05-12T02:29:13.442Z,-1.00
2023-05-12T02:31:40.577Z,-1.00
2023-05-12T02:34:19.777Z,-1.00
2023-05-12T02:36:46.814Z,-1.00
2023-05-12T02:39:14.050Z,-1.00
2023-05-12T02:41:41.118Z,-1.00
2023-05-12T02:44:08.352Z,-1.00
2023-05-12T02:46:35.606Z,-1.00
2023-05-12T02:49:02.781Z,-1.00
2023-05-12T02:51:30.173Z,-1.00
2023-05-12T02:53:57.124Z,-1.00
2023-05-12T02:56:24.151Z,-1.00
2023-05-12T02:58:51.191Z,-1.00
2023-05-12T03:01:18.213Z,-1.00
2023-05-12T03:03:45.379Z,-1.00
2023-05-12T03:06:12.759Z,-1.00
2023-05-12T03:08:39.717Z,-1.00
2023-05-12T03:11:06.703Z,-1.00
2023-05-12T03:13:33.830Z,-1.00
2023-05-12T03:16:01.840Z,-1.00
2023-05-12T03:18:29.814Z,-1.00
2023-05-12T03:20:57.023Z,-1.00
2023-05-12T03:23:24.663Z,-1.00
2023-05-12T03:25:51.765Z,-1.00
2023-05-12T03:28:18.748Z,-1.00
2023-05-12T03:30:45.755Z,-1.00
2023-05-12T03:33:12.780Z,-1.00
2023-05-12T03:35:39.934Z,-1.00
2023-05-12T03:38:07.172Z,-1.00
2023-05-12T03:40:34.241Z,-1.00
2023-05-12T03:43:01.186Z,-1.00
2023-05-12T03:45:28.418Z,-1.00
2023-05-12T03:47:55.465Z,-1.00
2023-05-12T03:50:22.782Z,-1.00
2023-05-12T03:52:49.905Z,-1.00
2023-05-12T03:55:17.016Z,-1.00
2023-05-12T03:57:44.059Z,-1.00
2023-05-12T04:00:12.016Z,-1.00
2023-05-12T04:02:44.996Z,-1.00
2023-05-12T04:05:14.239Z,-1.00
2023-05-12T04:07:42.368Z,-1.00
2023-05-12T04:10:10.498Z,-1.00
2023-05-12T04:12:37.676Z,-1.00
2023-05-12T04:15:05.692Z,-1.00
2023-05-12T04:17:32.727Z,-1.00
2023-05-12T04:19:59.739Z,-1.00
2023-05-12T04:22:26.939Z,-1.00
2023-05-12T04:24:54.428Z,-1.00
2023-05-12T04:27:21.753Z,-1.00
2023-05-12T04:29:48.731Z,-1.00
2023-05-12T04:32:16.149Z,-1.00
2023-05-12T04:34:43.737Z,-1.00
2023-05-12T04:37:10.800Z,-1.00
2023-05-12T04:39:37.878Z,-1.00
2023-05-12T04:42:05.963Z,-1.00
2023-05-12T04:44:34.612Z,-1.00
2023-05-12T04:47:01.710Z,-1.00
2023-05-12T04:49:30.417Z,-1.00
2023-05-12T04:51:57.460Z,-1.00
2023-05-12T04:54:24.621Z,-1.00
2023-05-12T04:56:51.874Z,-1.00
2023-05-12T04:59:18.824Z,-1.00
2023-05-12T05:01:49.147Z,-1.00
2023-05-12T05:04:16.507Z,-1.00
2023-05-12T05:06:44.008Z,-1.00
2023-05-12T05:09:11.354Z,-1.00
2023-05-12T05:11:38.640Z,-1.00
2023-05-12T05:14:05.888Z,-1.00
2023-05-12T05:16:34.290Z,-1.00
2023-05-12T05:19:05.736Z,-1.00
2023-05-12T05:21:34.645Z,-1.00
2023-05-12T05:24:01.859Z,-1.00
2023-05-12T05:26:29.110Z,-1.00
2023-05-12T05:28:56.247Z,-1.00
2023-05-12T05:31:24.715Z,-1.00
2023-05-12T05:33:51.824Z,-1.00
2023-05-12T05:36:18.976Z,-1.00
2023-05-12T05:38:46.087Z,-1.00
2023-05-12T05:41:13.398Z,-1.00
2023-05-12T05:43:40.509Z,-1.00
2023-05-12T05:46:08.052Z,-1.00
2023-05-12T05:48:36.798Z,-1.00
2023-05-12T05:51:05.076Z,-1.00
2023-05-12T05:53:32.814Z,-1.00
2023-05-12T05:56:00.035Z,-1.00
2023-05-12T05:58:27.514Z,-1.00
2023-05-12T06:00:54.927Z,-1.00
2023-05-12T06:03:23.579Z,-1.00
2023-05-12T06:05:50.707Z,-1.00
2023-05-12T06:08:17.684Z,-1.00
2023-05-12T06:10:44.713Z,-1.00
2023-05-12T06:13:12.139Z,-1.00
2023-05-12T06:15:39.206Z,-1.00
2023-05-12T06:18:06.355Z,-1.00
2023-05-12T06:20:33.386Z,-1.00
2023-05-12T06:23:02.048Z,-1.00
2023-05-12T06:25:28.993Z,-1.00
2023-05-12T06:27:56.203Z,-1.00
2023-05-12T06:30:23.668Z,-1.00
2023-05-12T06:32:54.876Z,-1.00
2023-05-12T06:35:22.170Z,-1.00
2023-05-12T06:37:52.023Z,-1.00
2023-05-12T06:40:19.166Z,-1.00
2023-05-12T06:42:47.251Z,-1.00
2023-05-12T06:45:19.441Z,-1.00
2023-05-12T06:47:46.881Z,-1.00
2023-05-12T06:50:13.983Z,-1.00
2023-05-12T06:52:41.080Z,-1.00
2023-05-12T06:55:08.498Z,-1.00
2023-05-12T06:57:35.589Z,-1.00
2023-05-12T07:00:04.154Z,-1.00
2023-05-12T07:02:31.270Z,-1.00
2023-05-12T07:04:58.354Z,-1.00
2023-05-12T07:07:25.466Z,-1.00
2023-05-12T07:09:52.876Z,-1.00
2023-05-12T07:12:19.942Z,-1.00
2023-05-12T07:14:46.955Z,-1.00
2023-05-12T07:17:14.835Z,-1.00
2023-05-12T07:19:43.669Z,-1.00
2023-05-12T07:22:10.754Z,-1.00
2023-05-12T07:24:38.592Z,-1.00
2023-05-12T07:27:06.218Z,-1.00
2023-05-12T07:29:33.302Z,-1.00
2023-05-12T07:32:00.509Z,-1.00
2023-05-12T07:34:27.735Z,-1.00
2023-05-12T07:36:54.681Z,-1.00
2023-05-12T07:39:24.027Z,-1.00
2023-05-12T07:41:52.230Z,-1.00
2023-05-12T07:44:20.973Z,-1.00
2023-05-12T07:46:48.020Z,-1.00
2023-05-12T07:49:15.051Z,-1.00
2023-05-12T07:51:42.034Z,-1.00
2023-05-12T07:54:09.815Z,-1.00
2023-05-12T07:56:36.761Z,-1.00
2023-05-12T07:59:04.313Z,-1.00
2023-05-12T08:01:31.392Z,-1.00
2023-05-12T08:03:58.615Z,-1.00
2023-05-12T08:06:25.820Z,-1.00
2023-05-12T08:08:53.578Z,-1.00
2023-05-12T08:11:21.017Z,-1.00
2023-05-12T08:13:48.020Z,-1.00
2023-05-12T08:16:14.927Z,-1.00
2023-05-12T08:18:41.763Z,-1.00
2023-05-12T08:21:08.744Z,-1.00
2023-05-12T08:23:37.794Z,-1.00
2023-05-12T08:26:04.839Z,-1.00
2023-05-12T08:28:31.849Z,-1.00
2023-05-12T08:30:59.006Z,-1.00
2023-05-12T08:33:25.971Z,-1.00
2023-05-12T08:35:53.187Z,-1.00
2023-05-12T08:38:20.095Z,-1.00
2023-05-12T08:40:50.113Z,-1.00
2023-05-12T08:43:26.286Z,-1.00
2023-05-12T08:45:57.750Z,-1.00
2023-05-12T08:48:25.407Z,-1.00
2023-05-12T08:50:52.269Z,-1.00
2023-05-12T08:53:19.533Z,-1.00
2023-05-12T08:55:58.390Z,-1.00
2023-05-12T08:58:40.782Z,-1.00
2023-05-12T09:01:09.320Z,-1.00
2023-05-12T09:03:36.510Z,-1.00
2023-05-12T09:06:03.850Z,-1.00
2023-05-12T09:08:33.176Z,-1.00
2023-05-12T09:11:00.264Z,-1.00
2023-05-12T09:13:35.832Z,-1.00
2023-05-12T09:16:03.027Z,-1.00
2023-05-12T09:18:41.539Z,-1.00
2023-05-12T09:21:08.664Z,-1.00
2023-05-12T09:23:35.558Z,-1.00
2023-05-12T09:26:02.525Z,-1.00
2023-05-12T09:28:39.667Z,-1.00
2023-05-12T09:31:16.408Z,-1.00
2023-05-12T09:33:43.378Z,-1.00
2023-05-12T09:36:10.209Z,-1.00
2023-05-12T09:38:37.124Z,-1.00
2023-05-12T09:41:04.006Z,-1.00
2023-05-12T09:43:30.881Z,-1.00
2023-05-12T09:45:57.747Z,-1.00
2023-05-12T09:48:27.403Z,-1.00
2023-05-12T09:50:54.387Z,-1.00
2023-05-12T09:53:23.038Z,-1.00
2023-05-12T09:55:49.958Z,-1.00
2023-05-12T09:58:17.965Z,-1.00
2023-05-12T10:01:12.797Z,-1.00
2023-05-12T10:03:32.243Z,-1.00
2023-05-12T10:06:01.634Z,-1.00
2023-05-12T10:08:34.556Z,-1.00
2023-05-12T10:11:02.130Z,-1.00
2023-05-12T10:13:29.051Z,-1.00
2023-05-12T10:15:57.044Z,-1.00
2023-05-12T10:18:24.604Z,-1.00
2023-05-12T10:20:52.585Z,-1.00
2023-05-12T10:23:19.867Z,-1.00
2023-05-12T10:25:46.845Z,-1.00
2023-05-12T10:28:13.760Z,-1.00
2023-05-12T10:30:40.931Z,-1.00
2023-05-12T10:33:09.281Z,-1.00
2023-05-12T10:35:36.583Z,-1.00
2023-05-12T10:38:13.894Z,-1.00
2023-05-12T10:41:01.085Z,-1.00
2023-05-12T10:43:40.206Z,-1.00
2023-05-12T10:46:08.622Z,-1.00
2023-05-12T10:48:36.616Z,-1.00
2023-05-12T10:51:10.288Z,-1.00
2023-05-12T10:53:49.852Z,-1.00
2023-05-12T10:56:51.589Z,-1.00
2023-05-12T10:59:23.167Z,-1.00
2023-05-12T11:02:05.098Z,-1.00
2023-05-12T11:04:53.375Z,-1.00
2023-05-12T11:07:22.466Z,-1.00
2023-05-12T11:12:19.560Z,-1.00
2023-05-12T11:14:46.720Z,-1.00
2023-05-12T11:17:14.290Z,-1.00
2023-05-12T11:19:45.732Z,-1.00
2023-05-12T11:22:12.975Z,-1.00
2023-05-12T11:24:41.096Z,-1.00
2023-05-12T11:27:12.907Z,-1.00
2023-05-12T11:29:41.500Z,-1.00
2023-05-12T11:32:12.612Z,-1.00
2023-05-12T11:34:39.680Z,-1.00
2023-05-12T11:37:09.672Z,-1.00
2023-05-12T11:39:36.594Z,-1.00
2023-05-12T11:42:12.214Z,-1.00
2023-05-12T11:44:50.031Z,-1.00
2023-05-12T11:47:19.800Z,-1.00
2023-05-12T11:49:51.333Z,-1.00
2023-05-12T11:52:19.804Z,-1.00
2023-05-12T11:54:53.448Z,-1.00
2023-05-12T11:57:33.548Z,-1.00
2023-05-12T12:00:08.036Z,-1.00
2023-05-12T12:02:39.947Z,-1.00
2023-05-12T12:05:18.054Z,-1.00
2023-05-12T12:07:45.739Z,-1.00
2023-05-12T12:10:16.420Z,-1.00
2023-05-12T12:12:44.369Z,-1.00
2023-05-12T12:15:11.680Z,-1.00
2023-05-12T12:17:40.111Z,-1.00
2023-05-12T12:20:08.336Z,-1.00
2023-05-12T12:22:35.504Z,-1.00
2023-05-12T12:25:02.912Z,-1.00
2023-05-12T12:27:29.890Z,-1.00
2023-05-12T12:29:56.851Z,-1.00
2023-05-12T12:32:23.901Z,-1.00
2023-05-12T12:34:50.907Z,-1.00
2023-05-12T12:37:17.827Z,-1.00
2023-05-12T12:39:44.718Z,-1.00
2023-05-12T12:42:11.598Z,-1.00
2023-05-12T12:44:39.395Z,-1.00
2023-05-12T12:47:06.331Z,-1.00
2023-05-12T12:49:33.239Z,-1.00
2023-05-12T12:52:00.163Z,-1.00
2023-05-12T12:54:27.835Z,-1.00
2023-05-12T12:56:55.697Z,-1.00
2023-05-12T12:59:22.839Z,-1.00
2023-05-12T13:01:49.803Z,-1.00
2023-05-12T13:04:19.658Z,-1.00
2023-05-12T13:06:46.718Z,-1.00
2023-05-12T13:09:14.078Z,-1.00
2023-05-12T13:11:41.011Z,-1.00
2023-05-12T13:14:08.312Z,-1.00
2023-05-12T13:16:35.186Z,-1.00
2023-05-12T13:19:02.169Z,-1.00
2023-05-12T13:21:30.040Z,-1.00
2023-05-12T13:23:56.865Z,-1.00
2023-05-12T13:26:23.758Z,-1.00
2023-05-12T13:28:50.688Z,-1.00
2023-05-12T13:31:18.071Z,-1.00
2023-05-12T13:33:47.619Z,-1.00
2023-05-12T13:36:14.664Z,-1.00
2023-05-12T13:38:41.828Z,-1.00
2023-05-12T13:41:08.844Z,-1.00
2023-05-12T13:43:35.977Z,-1.00
2023-05-12T13:46:03.022Z,-1.00
2023-05-12T13:48:29.904Z,-1.00
2023-05-12T13:50:56.759Z,-1.00
2023-05-12T13:53:23.607Z,-1.00
2023-05-12T13:55:50.491Z,-1.00
2023-05-12T13:58:17.655Z,-1.00
2023-05-12T14:00:48.007Z,-1.00
2023-05-12T14:03:14.953Z,-1.00
2023-05-12T14:05:41.853Z,-1.00
2023-05-12T14:08:09.023Z,-1.00
2023-05-12T14:10:36.211Z,-1.00
2023-05-12T14:13:03.067Z,-1.00
2023-05-12T14:15:44.265Z,-1.00
2023-05-12T14:18:15.244Z,-1.00
2023-05-12T14:20:42.186Z,-1.00
2023-05-12T14:23:09.116Z,-1.00
2023-05-12T14:25:36.004Z,-1.00
2023-05-12T14:28:03.629Z,-1.00
2023-05-12T14:30:30.662Z,-1.00
2023-05-12T14:32:57.690Z,-1.00
2023-05-12T14:35:27.830Z,-1.00
2023-05-12T14:37:56.732Z,-1.00
2023-05-12T14:40:23.765Z,-1.00
2023-05-12T14:42:51.398Z,-1.00
2023-05-12T14:45:20.327Z,-1.00
2023-05-12T14:47:47.726Z,-1.00
2023-05-12T14:50:15.226Z,-1.00
2023-05-12T14:52:42.594Z,-1.00
2023-05-12T14:55:12.247Z,-1.00
2023-05-12T14:57:39.953Z,-1.00
2023-05-12T15:00:13.928Z,-1.00
2023-05-12T15:02:42.191Z,-1.00
2023-05-12T15:05:09.903Z,-1.00
2023-05-12T15:07:37.114Z,-1.00
2023-05-12T15:10:04.967Z,-1.00
2023-05-12T15:12:32.511Z,-1.00
2023-05-12T15:15:04.729Z,-1.00
2023-05-12T15:17:32.004Z,-1.00
2023-05-12T15:19:59.267Z,-1.00
2023-05-12T15:22:26.419Z,-1.00
2023-05-12T15:24:53.272Z,-1.00
2023-05-12T15:27:20.255Z,-1.00
2023-05-12T15:29:47.215Z,-1.00
2023-05-12T15:32:14.051Z,-1.00
2023-05-12T15:34:40.928Z,-1.00
2023-05-12T15:37:07.895Z,-1.00
2023-05-12T15:39:34.792Z,-1.00
2023-05-12T15:42:02.056Z,-1.00
2023-05-12T15:44:28.903Z,-1.00
2023-05-12T15:46:55.885Z,-1.00
2023-05-12T15:49:22.880Z,-1.00
2023-05-12T15:51:49.812Z,-1.00
2023-05-12T15:54:17.259Z,-1.00
2023-05-12T15:56:44.169Z,-1.00
2023-05-12T15:59:12.275Z,-1.00
2023-05-12T16:01:39.337Z,-1.00
2023-05-12T16:04:07.132Z,-1.00
2023-05-12T16:06:34.123Z,-1.00
2023-05-12T16:09:01.139Z,-1.00
2023-05-12T16:11:28.539Z,-1.00
2023-05-12T16:13:57.183Z,-1.00
2023-05-12T16:16:24.078Z,-1.00
2023-05-12T16:18:50.993Z,-1.00
2023-05-12T16:21:17.917Z,-1.00
2023-05-12T16:23:44.759Z,-1.00
2023-05-12T16:26:11.928Z,-1.00
2023-05-12T16:28:38.805Z,-1.00
2023-05-12T16:31:05.799Z,-1.00
2023-05-12T16:33:32.830Z,-1.00
2023-05-12T16:36:19.143Z,-1.00
2023-05-12T16:39:26.093Z,-1.00
2023-05-12T16:41:53.084Z,-1.00
2023-05-12T16:44:28.190Z,-1.00
2023-05-12T16:47:01.654Z,-1.00
2023-05-12T16:49:44.233Z,-1.00
2023-05-12T16:52:18.400Z,-1.00
2023-05-12T16:54:45.397Z,-1.00
2023-05-12T16:57:12.283Z,-1.00
2023-05-12T17:00:32.053Z,-1.00
2023-05-12T17:04:30.685Z,-1.00
2023-05-12T17:07:09.928Z,-1.00
2023-05-12T17:09:36.813Z,-1.00
2023-05-12T17:12:40.313Z,-1.00
2023-05-12T17:15:08.654Z,-1.00
2023-05-12T17:18:18.104Z,-1.00
2023-05-12T17:21:33.841Z,-1.00
2023-05-12T17:24:21.248Z,-1.00
2023-05-12T17:26:48.266Z,-1.00
2023-05-12T17:29:15.269Z,-1.00
2023-05-12T17:31:42.197Z,-1.00
2023-05-12T17:34:09.106Z,-1.00
2023-05-12T17:36:35.999Z,-1.00
2023-05-12T17:39:03.075Z,-1.00
2023-05-12T17:41:30.271Z,-1.00
2023-05-12T17:44:06.737Z,-1.00
2023-05-12T17:46:33.826Z,-1.00
2023-05-12T17:49:00.759Z,-1.00
2023-05-12T17:51:32.760Z,-1.00
2023-05-12T17:54:02.028Z,-1.00
2023-05-12T17:56:42.822Z,-1.00
2023-05-12T17:59:12.391Z,-1.00
2023-05-12T18:01:39.710Z,-1.00
2023-05-12T18:04:06.877Z,-1.00
2023-05-12T18:06:33.921Z,-1.00
2023-05-12T18:09:00.824Z,-1.00
2023-05-12T18:11:29.231Z,-1.00
2023-05-12T18:13:56.203Z,-1.00
2023-05-12T18:16:28.935Z,-1.00
2023-05-12T18:18:56.912Z,-1.00
2023-05-12T18:21:24.111Z,-1.00
2023-05-12T18:23:51.132Z,-1.00
2023-05-12T18:27:28.968Z,45.83
2023-05-12T18:29:56.860Z,46.94
2023-05-12T18:32:25.009Z,47.53
2023-05-12T18:34:53.949Z,38.16
2023-05-12T18:37:21.414Z,-1.00
2023-05-12T18:39:48.824Z,-1.00
2023-05-12T18:42:15.713Z,-1.00
2023-05-12T18:44:42.730Z,-1.00
2023-05-12T18:47:10.770Z,-1.00
2023-05-12T18:49:37.799Z,-1.00
2023-05-12T18:52:05.032Z,-1.00
2023-05-12T18:54:32.064Z,-1.00
2023-05-12T18:56:59.353Z,-1.00
2023-05-12T18:59:28.585Z,-1.00
2023-05-12T19:01:56.661Z,-1.00
2023-05-12T19:04:23.790Z,-1.00
2023-05-12T19:06:50.831Z,-1.00
2023-05-12T19:09:17.832Z,-1.00
2023-05-12T19:11:45.181Z,-1.00
2023-05-12T19:14:12.176Z,-1.00
2023-05-12T19:16:40.032Z,-1.00
2023-05-12T19:19:13.386Z,-1.00
2023-05-12T19:21:42.989Z,-1.00
2023-05-12T19:24:10.708Z,-1.00
2023-05-12T19:26:37.747Z,-1.00
2023-05-12T19:29:04.782Z,-1.00
2023-05-12T19:31:32.008Z,-1.00
2023-05-12T19:33:58.979Z,-1.00
2023-05-12T19:36:25.909Z,-1.00
2023-05-12T19:38:52.941Z,-1.00
2023-05-12T19:41:20.767Z,-1.00
2023-05-12T19:43:48.365Z,-1.00
2023-05-12T19:46:16.931Z,-1.00
2023-05-12T19:48:43.841Z,-1.00
2023-05-12T19:51:10.846Z,-1.00
2023-05-12T19:53:37.763Z,-1.00
2023-05-12T19:56:04.742Z,-1.00
2023-05-12T19:58:31.646Z,-1.00
2023-05-12T20:00:58.579Z,-1.00
2023-05-12T20:03:25.718Z,-1.00
2023-05-12T20:05:52.681Z,-1.00
2023-05-12T20:08:19.689Z,-1.00
2023-05-12T20:10:47.173Z,-1.00
2023-05-12T20:13:14.188Z,-1.00
2023-05-12T20:15:42.762Z,-1.00
2023-05-12T20:18:12.061Z,-1.00
2023-05-12T20:20:38.905Z,-1.00
2023-05-12T20:23:05.953Z,-1.00
2023-05-12T20:25:33.464Z,-1.00
2023-05-12T20:28:01.577Z,-1.00
2023-05-12T20:30:28.515Z,-1.00
2023-05-12T21:06:11.718Z,59.79
2023-05-12T21:08:40.980Z,55.78
2023-05-12T21:11:20.784Z,68.00
2023-05-12T21:13:47.661Z,-1.00
2023-05-12T21:16:15.166Z,-1.00
2023-05-12T21:18:42.275Z,-1.00
2023-05-12T21:21:08.948Z,-1.00
2023-05-12T21:23:38.298Z,-1.00
2023-05-12T21:26:05.711Z,-1.00
2023-05-12T21:28:32.437Z,-1.00
2023-05-12T21:30:59.160Z,-1.00
2023-05-12T21:33:25.789Z,-1.00
2023-05-12T21:35:54.903Z,-1.00
2023-05-12T21:38:21.668Z,-1.00
2023-05-12T21:40:51.317Z,-1.00
2023-05-12T21:43:18.118Z,-1.00
2023-05-12T21:45:44.973Z,-1.00
2023-05-12T21:48:12.046Z,-1.00
2023-05-12T21:50:38.900Z,-1.00
2023-05-12T21:53:08.338Z,-1.00
2023-05-12T21:55:37.961Z,-1.00
2023-05-12T21:58:04.600Z,-1.00
2023-05-12T22:00:31.273Z,-1.00
2023-05-12T22:02:58.038Z,-1.00
2023-05-12T22:05:24.856Z,-1.00
2023-05-12T22:07:51.960Z,-1.00
2023-05-12T22:10:19.191Z,-1.00
2023-05-12T22:12:46.097Z,-1.00
2023-05-12T22:15:12.825Z,-1.00
2023-05-12T22:17:39.654Z,-1.00
2023-05-12T22:20:08.582Z,-1.00
2023-05-12T22:22:35.438Z,-1.00
2023-05-12T22:25:04.027Z,-1.00
2023-05-12T22:27:31.062Z,-1.00
2023-05-12T22:29:58.023Z,-1.00
2023-05-12T22:32:24.770Z,-1.00
2023-05-12T22:34:54.844Z,-1.00
2023-05-12T22:37:21.741Z,-1.00
2023-05-12T22:39:48.478Z,-1.00
2023-05-12T22:42:15.253Z,-1.00
2023-05-12T22:44:41.853Z,-1.00
2023-05-12T22:47:08.609Z,-1.00
2023-05-12T22:49:35.493Z,-1.00
2023-05-12T22:52:02.184Z,-1.00
2023-05-12T22:54:29.238Z,-1.00
2023-05-12T22:56:56.013Z,-1.00
2023-05-12T22:59:23.150Z,-1.00
2023-05-12T23:01:49.798Z,-1.00
2023-05-12T23:04:16.592Z,-1.00
2023-05-12T23:06:43.472Z,-1.00
2023-05-12T23:09:10.219Z,-1.00
2023-05-12T23:11:37.583Z,-1.00
2023-05-12T23:14:04.385Z,-1.00
2023-05-12T23:16:32.435Z,-1.00
2023-05-12T23:18:59.252Z,-1.00
2023-05-12T23:21:25.918Z,-1.00
2023-05-12T23:23:52.563Z,-1.00
2023-05-12T23:26:19.183Z,-1.00
2023-05-12T23:28:45.795Z,-1.00
2023-05-12T23:31:12.647Z,-1.00
2023-05-12T23:33:39.299Z,-1.00
2023-05-12T23:36:06.916Z,-1.00
2023-05-12T23:38:33.860Z,-1.00
2023-05-12T23:41:00.533Z,-1.00
2023-05-12T23:43:27.468Z,-1.00
2023-05-12T23:45:54.213Z,-1.00
2023-05-12T23:48:20.907Z,-1.00
2023-05-12T23:50:47.817Z,-1.00
2023-05-12T23:53:14.726Z,-1.00
2023-05-12T23:55:41.605Z,-1.00
2023-05-12T23:58:10.074Z,-1.00
